Balmat, New York
Current Conditions -  °F | °C
As of 11:58 PM on Friday 24 Oct 2014 (Local Time) from KGTB Reporting Station
Clear Clear  
Wind Chill:   Ceiling: Unl
Heat Index:   Visibility: 10mi
Dew Point:   Wind: 9mph
Humidity: 89%   Direction: 250°WSW
Pressure: 29.85"   Gusts: NA
Location:  44.2483°N, 75.3953°W
Report Text: KGTB 250358Z AUTO 25008KT 10SM CLR 09/08 A2985 RMK AO2 SLP110 T00920075
Loading
Personal Weather Stations






























Interactive Weather Map
Tropical Storm Tracking
New forecast layout! Learn more

10-Day Weather Forecast

Advertisements
Track Severe Weather on mobile